createdAt,value
2023-02-18T00:01:21.076Z,71.22
2023-02-18T00:03:48.797Z,71.58
2023-02-18T00:06:24.792Z,71.19
2023-02-18T00:08:52.213Z,71.27
2023-02-18T00:11:20.121Z,71.41
2023-02-18T00:13:51.616Z,71.18
2023-02-18T00:16:18.466Z,71.23
2023-02-18T00:18:45.254Z,71.42
2023-02-18T00:21:12.282Z,71.23
2023-02-18T00:23:38.942Z,71.18
2023-02-18T00:26:12.107Z,71.06
2023-02-18T00:28:41.224Z,70.98
2023-02-18T00:31:15.570Z,71.38
2023-02-18T00:33:42.812Z,71.10
2023-02-18T00:36:12.257Z,71.21
2023-02-18T00:38:39.370Z,70.92
2023-02-18T00:41:06.930Z,71.10
2023-02-18T00:43:33.972Z,70.99
2023-02-18T00:46:02.195Z,70.93
2023-02-18T00:48:29.035Z,70.96
2023-02-18T00:50:55.785Z,71.44
2023-02-18T00:53:23.158Z,71.36
2023-02-18T00:55:49.874Z,71.15
2023-02-18T00:58:17.214Z,71.23
2023-02-18T01:00:44.332Z,70.97
2023-02-18T01:03:12.386Z,71.04
2023-02-18T01:05:39.712Z,70.94
2023-02-18T01:08:07.634Z,70.92
2023-02-18T01:10:35.600Z,70.97
2023-02-18T01:13:04.832Z,71.08
2023-02-18T01:15:31.833Z,70.88
2023-02-18T01:17:58.711Z,71.44
2023-02-18T01:20:25.742Z,71.39
2023-02-18T01:22:52.709Z,71.35
2023-02-18T01:25:19.364Z,71.45
2023-02-18T01:27:46.119Z,71.44
2023-02-18T01:30:15.437Z,71.44
2023-02-18T01:32:42.261Z,71.18
2023-02-18T01:35:13.913Z,71.08
2023-02-18T01:37:40.687Z,71.03
2023-02-18T01:40:08.394Z,71.30
2023-02-18T01:42:35.238Z,71.17
2023-02-18T01:45:39.214Z,70.89
2023-02-18T01:48:09.364Z,71.20
2023-02-18T01:50:41.149Z,70.70
2023-02-18T01:53:08.776Z,71.18
2023-02-18T01:55:37.273Z,70.72
2023-02-18T01:58:06.075Z,71.23
2023-02-18T02:00:32.970Z,71.27
2023-02-18T02:02:59.877Z,71.19
2023-02-18T02:05:32.008Z,70.76
2023-02-18T02:07:59.859Z,71.22
2023-02-18T02:10:39.017Z,71.15
2023-02-18T02:13:32.096Z,70.93
2023-02-18T02:16:05.686Z,70.65
2023-02-18T02:18:45.443Z,70.69
2023-02-18T02:21:33.461Z,70.98
2023-02-18T02:24:17.257Z,70.86
2023-02-18T02:26:53.068Z,70.63
2023-02-18T02:29:43.269Z,70.88
2023-02-18T02:32:24.905Z,70.92
2023-02-18T02:35:24.606Z,70.69
2023-02-18T02:38:19.749Z,70.89
2023-02-18T02:40:55.486Z,70.86
2023-02-18T02:43:39.012Z,71.01
2023-02-18T02:46:28.716Z,71.13
2023-02-18T02:49:15.949Z,70.80
2023-02-18T02:51:51.090Z,70.87
2023-02-18T02:54:24.361Z,70.82
2023-02-18T02:57:14.148Z,71.03
2023-02-18T02:59:59.800Z,70.93
2023-02-18T03:03:04.725Z,70.82
2023-02-18T03:06:11.505Z,70.83
2023-02-18T03:08:49.921Z,70.87
2023-02-18T03:11:18.165Z,70.75
2023-02-18T03:14:03.033Z,70.81
2023-02-18T03:16:47.299Z,70.71
2023-02-18T03:19:31.949Z,70.77
2023-02-18T03:22:13.010Z,70.71
2023-02-18T03:24:44.925Z,70.76
2023-02-18T03:27:18.050Z,70.68
2023-02-18T03:29:50.741Z,70.45
2023-02-18T03:32:19.523Z,70.86
2023-02-18T03:34:49.220Z,70.80
2023-02-18T03:37:16.349Z,71.05
2023-02-18T03:39:46.436Z,70.48
2023-02-18T03:42:13.962Z,70.47
2023-02-18T03:44:40.713Z,70.98
2023-02-18T03:47:07.530Z,70.94
2023-02-18T03:49:34.175Z,70.78
2023-02-18T03:52:00.926Z,70.88
2023-02-18T03:54:27.616Z,70.69
2023-02-18T03:56:54.873Z,70.21
2023-02-18T03:59:21.598Z,70.45
2023-02-18T04:01:48.368Z,70.31
2023-02-18T04:04:15.085Z,70.57
2023-02-18T04:06:41.809Z,70.47
2023-02-18T04:09:09.219Z,70.42
2023-02-18T04:11:40.750Z,70.61
2023-02-18T04:14:08.250Z,70.61
2023-02-18T04:16:34.995Z,69.87
2023-02-18T04:19:01.803Z,70.35
2023-02-18T04:21:28.500Z,70.14
2023-02-18T04:23:55.212Z,70.21
2023-02-18T04:26:22.033Z,69.90
2023-02-18T04:28:48.897Z,69.87
2023-02-18T04:31:15.687Z,70.14
2023-02-18T04:33:42.586Z,70.04
2023-02-18T04:36:10.309Z,70.20
2023-02-18T04:38:37.149Z,70.03
2023-02-18T04:41:03.932Z,69.72
2023-02-18T04:43:30.715Z,69.73
2023-02-18T04:45:57.397Z,69.90
2023-02-18T04:48:24.208Z,69.93
2023-02-18T04:50:50.980Z,69.76
2023-02-18T04:53:17.728Z,70.15
2023-02-18T04:55:44.393Z,70.12
2023-02-18T04:58:11.208Z,69.71
2023-02-18T05:00:37.885Z,69.72
2023-02-18T05:03:04.634Z,69.77
2023-02-18T05:05:31.492Z,69.98
2023-02-18T05:07:58.302Z,69.72
2023-02-18T05:10:25.022Z,70.07
2023-02-18T05:12:51.790Z,70.16
2023-02-18T05:15:18.713Z,69.84
2023-02-18T05:17:45.538Z,69.80
2023-02-18T05:20:12.529Z,69.86
2023-02-18T05:22:39.274Z,69.94
2023-02-18T05:25:06.456Z,70.04
2023-02-18T05:27:33.322Z,70.08
2023-02-18T05:30:00.308Z,69.44
2023-02-18T05:32:27.196Z,69.68
2023-02-18T05:34:53.882Z,69.37
2023-02-18T05:37:20.633Z,69.43
2023-02-18T05:39:47.337Z,69.25
2023-02-18T05:42:14.239Z,69.43
2023-02-18T05:44:40.952Z,69.22
2023-02-18T05:47:11.611Z,69.62
2023-02-18T05:49:40.380Z,69.32
2023-02-18T05:52:07.377Z,69.50
2023-02-18T05:54:35.443Z,69.21
2023-02-18T05:57:02.477Z,69.29
2023-02-18T05:59:29.717Z,69.15
2023-02-18T06:01:56.547Z,69.57
2023-02-18T06:04:23.718Z,69.28
2023-02-18T06:06:50.428Z,68.91
2023-02-18T06:09:17.311Z,69.39
2023-02-18T06:11:44.296Z,69.25
2023-02-18T06:14:11.164Z,69.16
2023-02-18T06:16:37.935Z,68.90
2023-02-18T06:19:04.878Z,68.85
2023-02-18T06:21:31.613Z,69.04
2023-02-18T06:23:58.496Z,68.86
2023-02-18T06:26:25.306Z,69.25
2023-02-18T06:28:52.050Z,68.93
2023-02-18T06:31:18.829Z,69.11
2023-02-18T06:33:45.732Z,68.95
2023-02-18T06:36:13.549Z,68.54
2023-02-18T06:38:41.680Z,69.03
2023-02-18T06:41:08.749Z,68.68
2023-02-18T06:43:35.740Z,68.81
2023-02-18T06:46:03.586Z,68.38
2023-02-18T06:48:30.436Z,68.34
2023-02-18T06:50:57.428Z,68.59
2023-02-18T06:53:24.121Z,68.37
2023-02-18T06:55:51.010Z,68.45
2023-02-18T06:58:17.884Z,68.62
2023-02-18T07:00:45.108Z,68.82
2023-02-18T07:03:14.312Z,68.51
2023-02-18T07:05:42.076Z,68.86
2023-02-18T07:08:09.013Z,68.61
2023-02-18T07:10:35.801Z,68.73
2023-02-18T07:13:02.707Z,68.83
2023-02-18T07:15:29.411Z,68.86
2023-02-18T07:17:56.540Z,69.02
2023-02-18T07:20:23.340Z,69.10
2023-02-18T07:22:50.498Z,68.98
2023-02-18T07:25:17.397Z,69.08
2023-02-18T07:27:44.169Z,69.01
2023-02-18T07:30:11.240Z,68.52
2023-02-18T07:32:38.047Z,68.82
2023-02-18T07:35:06.153Z,68.44
2023-02-18T07:37:33.146Z,68.31
2023-02-18T07:39:59.942Z,68.24
2023-02-18T07:42:26.982Z,68.26
2023-02-18T07:44:54.076Z,68.21
2023-02-18T07:47:20.903Z,68.07
2023-02-18T07:49:47.869Z,68.35
2023-02-18T07:52:15.937Z,68.22
2023-02-18T07:54:42.821Z,68.34
2023-02-18T07:57:09.777Z,67.87
2023-02-18T07:59:36.608Z,68.20
2023-02-18T08:02:05.667Z,68.13
2023-02-18T08:04:32.442Z,68.15
2023-02-18T08:06:59.251Z,67.91
2023-02-18T08:09:26.033Z,67.65
2023-02-18T08:11:52.830Z,67.71
2023-02-18T08:14:19.508Z,67.61
2023-02-18T08:16:46.353Z,67.78
2023-02-18T08:19:13.097Z,67.62
2023-02-18T08:21:39.923Z,67.53
2023-02-18T08:24:08.175Z,67.79
2023-02-18T08:26:35.078Z,67.45
2023-02-18T08:29:01.773Z,67.73
2023-02-18T08:31:30.000Z,67.54
2023-02-18T08:33:57.913Z,67.64
2023-02-18T08:36:24.984Z,67.73
2023-02-18T08:38:51.772Z,67.20
2023-02-18T08:41:19.097Z,67.37
2023-02-18T08:43:46.759Z,67.76
2023-02-18T08:46:16.085Z,67.47
2023-02-18T08:48:44.619Z,67.44
2023-02-18T08:51:13.912Z,67.97
2023-02-18T08:53:40.734Z,67.94
2023-02-18T08:56:09.187Z,67.93
2023-02-18T08:58:37.423Z,68.07
2023-02-18T09:01:06.565Z,67.82
2023-02-18T09:03:34.228Z,67.95
2023-02-18T09:06:01.235Z,68.23
2023-02-18T09:08:29.476Z,68.05
2023-02-18T09:11:02.311Z,68.37
2023-02-18T09:13:29.121Z,68.16
2023-02-18T09:16:04.795Z,68.24
2023-02-18T09:18:32.097Z,68.29
2023-02-18T09:20:59.948Z,68.22
2023-02-18T09:23:28.292Z,68.19
2023-02-18T09:25:55.233Z,68.37
2023-02-18T09:28:22.734Z,68.00
2023-02-18T09:30:49.616Z,68.12
2023-02-18T09:33:16.996Z,67.97
2023-02-18T09:35:45.531Z,68.00
2023-02-18T09:38:15.108Z,68.22
2023-02-18T09:40:50.984Z,67.69
2023-02-18T09:43:31.843Z,67.63
2023-02-18T09:45:59.500Z,67.44
2023-02-18T09:48:28.805Z,67.19
2023-02-18T09:50:55.760Z,67.17
2023-02-18T09:53:23.464Z,67.07
2023-02-18T09:55:56.280Z,66.86
2023-02-18T09:58:33.795Z,67.04
2023-02-18T10:01:37.691Z,66.91
2023-02-18T10:04:17.303Z,66.50
2023-02-18T10:06:46.225Z,66.31
2023-02-18T10:09:23.300Z,66.09
2023-02-18T10:11:56.987Z,66.25
2023-02-18T10:14:24.594Z,66.55
2023-02-18T10:16:51.543Z,65.66
2023-02-18T10:19:25.712Z,66.12
2023-02-18T10:21:53.640Z,66.05
2023-02-18T10:24:26.098Z,66.22
2023-02-18T10:26:52.999Z,65.95
2023-02-18T10:29:21.794Z,66.14
2023-02-18T10:31:57.404Z,65.85
2023-02-18T10:34:57.758Z,65.89
2023-02-18T10:37:32.398Z,66.21
2023-02-18T10:40:23.907Z,66.23
2023-02-18T10:43:06.032Z,65.76
2023-02-18T10:45:33.064Z,66.13
2023-02-18T10:48:26.016Z,66.02
2023-02-18T10:50:52.788Z,66.04
2023-02-18T10:53:33.988Z,65.70
2023-02-18T10:56:00.915Z,65.64
2023-02-18T10:58:28.235Z,65.80
2023-02-18T11:00:55.685Z,65.80
2023-02-18T11:03:25.158Z,65.39
2023-02-18T11:05:57.885Z,65.92
2023-02-18T11:08:27.394Z,65.85
2023-02-18T11:10:54.434Z,65.24
2023-02-18T11:13:29.517Z,65.60
2023-02-18T11:16:03.936Z,65.02
2023-02-18T11:18:38.742Z,64.28
2023-02-18T11:21:21.709Z,64.08
2023-02-18T11:23:51.689Z,64.13
2023-02-18T11:26:25.428Z,64.04
2023-02-18T11:28:58.629Z,63.89
2023-02-18T11:31:27.637Z,64.29
2023-02-18T11:33:57.618Z,63.85
2023-02-18T11:36:25.594Z,63.54
2023-02-18T11:38:56.811Z,62.94
2023-02-18T11:41:36.336Z,63.23
2023-02-18T11:44:06.388Z,63.08
2023-02-18T11:46:33.605Z,62.90
2023-02-18T11:49:22.731Z,62.99
2023-02-18T11:51:50.681Z,63.06
2023-02-18T11:54:31.563Z,63.21
2023-02-18T11:57:01.508Z,63.07
2023-02-18T11:59:30.458Z,63.08
2023-02-18T12:02:09.519Z,63.09
2023-02-18T12:05:13.966Z,63.58
2023-02-18T12:07:53.121Z,63.65
2023-02-18T12:10:34.489Z,63.79
2023-02-18T12:13:08.219Z,63.75
2023-02-18T12:16:05.008Z,63.55
2023-02-18T12:18:47.081Z,63.17
2023-02-18T12:21:21.456Z,63.56
2023-02-18T12:24:33.790Z,63.60
2023-02-18T12:27:07.662Z,63.24
2023-02-18T12:30:02.205Z,63.23
2023-02-18T12:32:46.160Z,63.04
2023-02-18T12:35:34.326Z,62.82
2023-02-18T12:38:53.289Z,62.50
2023-02-18T12:41:31.970Z,62.97
2023-02-18T12:44:14.148Z,62.91
2023-02-18T12:47:02.552Z,62.14
2023-02-18T12:49:35.439Z,62.38
2023-02-18T12:52:22.465Z,62.59
2023-02-18T12:54:56.581Z,61.73
2023-02-18T12:57:41.309Z,62.29
2023-02-18T13:00:38.761Z,62.34
2023-02-18T13:03:50.169Z,62.59
2023-02-18T13:06:47.840Z,62.08
2023-02-18T13:09:36.094Z,62.36
2023-02-18T13:12:23.040Z,61.93
2023-02-18T13:14:57.408Z,62.37
2023-02-18T13:17:26.315Z,62.34
2023-02-18T13:19:57.207Z,62.03
2023-02-18T13:22:25.994Z,61.79
2023-02-18T13:24:54.788Z,62.29
2023-02-18T13:27:32.007Z,62.26
2023-02-18T13:30:17.530Z,61.82
2023-02-18T13:33:18.008Z,62.12
2023-02-18T13:35:48.824Z,61.94
2023-02-18T13:38:57.033Z,62.15
2023-02-18T13:41:26.111Z,62.00
2023-02-18T13:43:53.706Z,62.33
2023-02-18T13:46:22.643Z,62.22
2023-02-18T13:49:15.772Z,62.10
2023-02-18T13:51:48.738Z,62.06
2023-02-18T13:54:23.930Z,62.11
2023-02-18T13:56:56.921Z,62.48
2023-02-18T13:59:37.337Z,62.38
2023-02-18T14:02:22.914Z,62.15
2023-02-18T14:04:55.144Z,62.46
2023-02-18T14:07:25.002Z,62.41
2023-02-18T14:09:53.194Z,62.45
2023-02-18T14:12:39.173Z,62.14
2023-02-18T14:15:18.090Z,62.05
2023-02-18T14:18:12.912Z,62.13
2023-02-18T14:20:39.686Z,62.11
2023-02-18T14:23:18.258Z,62.04
2023-02-18T14:26:14.039Z,62.33
2023-02-18T14:28:49.485Z,62.24
2023-02-18T14:31:16.253Z,62.18
2023-02-18T14:34:00.605Z,61.88
2023-02-18T14:36:45.119Z,61.60
2023-02-18T14:39:36.359Z,61.86
2023-02-18T14:42:18.372Z,61.66
2023-02-18T14:45:00.432Z,61.52
2023-02-18T14:48:00.957Z,61.49
2023-02-18T14:50:32.734Z,61.93
2023-02-18T14:53:03.509Z,61.17
2023-02-18T14:55:33.326Z,61.18
2023-02-18T14:58:06.752Z,61.65
2023-02-18T15:00:36.036Z,62.10
2023-02-18T15:03:02.692Z,62.30
2023-02-18T15:05:31.499Z,62.75
2023-02-18T15:08:00.701Z,62.99
2023-02-18T15:10:47.661Z,62.67
2023-02-18T15:13:31.494Z,62.82
2023-02-18T15:16:02.851Z,62.85
2023-02-18T15:18:40.796Z,63.04
2023-02-18T15:21:20.144Z,62.55
2023-02-18T15:23:47.380Z,62.99
2023-02-18T15:26:15.333Z,63.05
2023-02-18T15:28:52.664Z,63.17
2023-02-18T15:31:25.744Z,62.77
2023-02-18T15:33:52.596Z,62.58
2023-02-18T15:36:19.393Z,62.97
2023-02-18T15:38:46.125Z,62.68
2023-02-18T15:41:17.020Z,63.13
2023-02-18T15:44:04.020Z,63.04
2023-02-18T15:46:32.088Z,62.58
2023-02-18T15:48:59.088Z,63.17
2023-02-18T15:51:28.292Z,63.10
2023-02-18T15:53:58.237Z,63.12
2023-02-18T15:56:36.897Z,62.81
2023-02-18T15:59:35.414Z,63.16
2023-02-18T16:02:08.263Z,62.75
2023-02-18T16:04:39.670Z,62.92
2023-02-18T16:07:25.038Z,63.02
2023-02-18T16:10:07.703Z,63.19
2023-02-18T16:12:34.960Z,62.96
2023-02-18T16:15:01.689Z,62.66
2023-02-18T16:17:29.887Z,62.44
2023-02-18T16:20:05.324Z,62.97
2023-02-18T16:22:37.681Z,62.64
2023-02-18T16:25:13.592Z,63.02
2023-02-18T16:27:53.393Z,63.02
2023-02-18T16:30:22.095Z,62.86
2023-02-18T16:32:49.100Z,62.99
2023-02-18T16:35:16.081Z,62.56
2023-02-18T16:37:43.331Z,62.41
2023-02-18T16:40:31.938Z,62.62
2023-02-18T16:43:01.996Z,62.13
2023-02-18T16:45:41.176Z,62.04
2023-02-18T16:48:17.336Z,62.46
2023-02-18T16:50:44.156Z,62.61
2023-02-18T16:53:14.129Z,62.12
2023-02-18T16:55:40.917Z,62.37
2023-02-18T16:58:07.660Z,62.19
2023-02-18T17:00:34.677Z,62.13
2023-02-18T17:03:01.693Z,62.29
2023-02-18T17:05:31.564Z,62.44
2023-02-18T17:08:13.241Z,62.27
2023-02-18T17:10:40.068Z,62.26
2023-02-18T17:13:06.737Z,62.05
2023-02-18T17:15:35.266Z,62.21
2023-02-18T17:18:04.584Z,62.13
2023-02-18T17:20:32.428Z,61.76
2023-02-18T17:22:59.786Z,61.56
2023-02-18T17:25:35.764Z,62.05
2023-02-18T17:28:02.757Z,61.80
2023-02-18T17:30:30.537Z,61.56
2023-02-18T17:33:01.792Z,61.56
2023-02-18T17:35:29.781Z,61.61
2023-02-18T17:37:56.618Z,61.67
2023-02-18T17:40:25.941Z,61.55
2023-02-18T17:42:54.132Z,61.40
2023-02-18T17:45:23.929Z,61.41
2023-02-18T17:47:50.637Z,61.81
2023-02-18T17:50:17.939Z,61.82
2023-02-18T17:52:44.718Z,61.71
2023-02-18T17:55:17.431Z,61.60
2023-02-18T17:57:46.991Z,61.64
2023-02-18T18:00:15.930Z,61.67
2023-02-18T18:02:42.777Z,61.66
2023-02-18T18:05:22.185Z,61.88
2023-02-18T18:07:50.263Z,61.91
2023-02-18T18:10:18.756Z,62.07
2023-02-18T18:12:45.906Z,62.14
2023-02-18T18:15:23.142Z,62.26
2023-02-18T18:17:50.005Z,62.29
2023-02-18T18:20:16.966Z,61.77
2023-02-18T18:22:43.697Z,62.14
2023-02-18T18:25:21.074Z,61.81
2023-02-18T18:27:47.976Z,61.72
2023-02-18T18:30:14.866Z,62.17
2023-02-18T18:32:41.689Z,62.12
2023-02-18T18:35:19.870Z,62.02
2023-02-18T18:37:46.994Z,61.87
2023-02-18T18:40:13.748Z,62.11
2023-02-18T18:42:40.592Z,62.14
2023-02-18T18:45:07.981Z,62.31
2023-02-18T18:47:34.652Z,62.22
2023-02-18T18:50:01.285Z,62.14
2023-02-18T18:52:28.078Z,62.23
2023-02-18T18:54:54.731Z,62.19
2023-02-18T18:57:21.498Z,62.42
2023-02-18T18:59:48.675Z,62.48
2023-02-18T19:02:16.808Z,62.22
2023-02-18T19:04:43.416Z,62.04
2023-02-18T19:07:10.545Z,62.61
2023-02-18T19:09:37.325Z,62.48
2023-02-18T19:12:04.240Z,62.56
2023-02-18T19:14:30.961Z,62.35
2023-02-18T19:16:57.823Z,61.83
2023-02-18T19:19:24.656Z,62.13
2023-02-18T19:21:52.956Z,61.98
2023-02-18T19:24:19.596Z,61.91
2023-02-18T19:26:46.407Z,62.30
2023-02-18T19:29:13.139Z,61.94
2023-02-18T19:31:39.982Z,61.97
2023-02-18T19:34:06.677Z,61.83
2023-02-18T19:36:33.466Z,61.81
2023-02-18T19:39:00.124Z,62.36
2023-02-18T19:41:28.265Z,62.48
2023-02-18T19:43:55.019Z,62.38
2023-02-18T19:46:21.809Z,61.88
2023-02-18T19:48:50.422Z,62.13
2023-02-18T19:51:17.243Z,62.19
2023-02-18T19:53:43.917Z,62.01
2023-02-18T19:56:10.740Z,62.29
2023-02-18T19:58:40.146Z,62.15
2023-02-18T20:01:19.923Z,62.04
2023-02-18T20:03:47.422Z,61.82
2023-02-18T20:06:18.325Z,62.05
2023-02-18T20:08:45.798Z,61.55
2023-02-18T20:11:12.878Z,61.44
2023-02-18T20:13:39.624Z,61.51
2023-02-18T20:16:07.917Z,61.76
2023-02-18T20:18:34.784Z,61.79
2023-02-18T20:21:01.470Z,61.92
2023-02-18T20:23:28.200Z,61.94
2023-02-18T20:25:54.824Z,61.44
2023-02-18T20:28:21.540Z,61.65
2023-02-18T20:30:48.192Z,61.73
2023-02-18T20:33:14.985Z,61.33
2023-02-18T20:35:41.661Z,61.56
2023-02-18T20:38:08.478Z,61.68
2023-02-18T20:40:35.141Z,61.67
2023-02-18T20:43:01.977Z,61.29
2023-02-18T20:45:28.716Z,61.52
2023-02-18T20:47:55.464Z,61.38
2023-02-18T20:50:22.194Z,61.44
2023-02-18T20:52:49.020Z,61.29
2023-02-18T20:55:15.692Z,61.57
2023-02-18T20:57:42.408Z,61.56
2023-02-18T21:00:09.731Z,61.03
2023-02-18T21:02:36.445Z,61.16
2023-02-18T21:05:03.137Z,60.99
2023-02-18T21:07:29.869Z,61.30
2023-02-18T21:09:56.515Z,61.04
2023-02-18T21:12:23.256Z,61.23
2023-02-18T21:14:49.967Z,61.03
2023-02-18T21:17:16.787Z,60.89
2023-02-18T21:19:43.497Z,60.68
2023-02-18T21:22:10.274Z,60.83
2023-02-18T21:24:36.995Z,60.74
2023-02-18T21:27:03.911Z,60.60
2023-02-18T21:29:30.711Z,60.73
2023-02-18T21:31:57.485Z,60.96
2023-02-18T21:34:26.028Z,60.89
2023-02-18T21:36:52.818Z,60.78
2023-02-18T21:39:19.524Z,60.85
2023-02-18T21:41:46.311Z,60.82
2023-02-18T21:44:12.979Z,60.98
2023-02-18T21:46:40.090Z,60.87
2023-02-18T21:49:06.962Z,60.80
2023-02-18T21:51:59.555Z,60.61
2023-02-18T21:54:28.890Z,60.61
2023-02-18T21:56:56.636Z,60.69
2023-02-18T21:59:24.896Z,60.64
2023-02-18T22:01:51.590Z,60.73
2023-02-18T22:04:18.492Z,61.00
2023-02-18T22:06:45.267Z,60.84
2023-02-18T22:09:12.866Z,60.78
2023-02-18T22:11:41.996Z,61.14
2023-02-18T22:14:10.409Z,60.59
2023-02-18T22:16:37.268Z,60.79
2023-02-18T22:19:04.337Z,60.98
2023-02-18T22:21:31.113Z,60.80
2023-02-18T22:23:57.860Z,61.07
2023-02-18T22:26:24.796Z,60.65
2023-02-18T22:28:56.395Z,60.91
2023-02-18T22:31:24.395Z,61.21
2023-02-18T22:33:55.548Z,60.83
2023-02-18T22:36:23.652Z,61.23
2023-02-18T22:38:50.848Z,61.11
2023-02-18T22:41:19.149Z,61.21
2023-02-18T22:43:46.432Z,61.16
2023-02-18T22:46:15.671Z,61.50
2023-02-18T22:48:43.033Z,61.27
2023-02-18T22:51:12.764Z,61.61
2023-02-18T22:53:40.120Z,61.20
2023-02-18T22:56:13.912Z,61.34
2023-02-18T22:58:41.795Z,61.66
2023-02-18T23:01:15.586Z,61.15
2023-02-18T23:03:42.317Z,61.53
2023-02-18T23:06:08.959Z,61.40
2023-02-18T23:08:35.728Z,60.92
2023-02-18T23:11:04.469Z,61.40
2023-02-18T23:13:31.313Z,60.97
2023-02-18T23:15:59.445Z,60.94
2023-02-18T23:18:26.734Z,61.21
2023-02-18T23:21:12.579Z,61.25
2023-02-18T23:23:39.464Z,60.91
2023-02-18T23:26:06.302Z,60.82
2023-02-18T23:28:47.658Z,60.51
2023-02-18T23:31:23.922Z,60.95
2023-02-18T23:33:55.968Z,60.84
2023-02-18T23:36:24.909Z,61.07
2023-02-18T23:38:54.027Z,61.22
2023-02-18T23:41:21.481Z,61.08
2023-02-18T23:43:48.910Z,60.89
2023-02-18T23:46:16.938Z,60.95
2023-02-18T23:48:43.785Z,60.95
2023-02-18T23:51:13.378Z,61.04
2023-02-18T23:53:40.383Z,61.04
2023-02-18T23:56:25.994Z,60.64
2023-02-18T23:58:57.279Z,60.76
